createdAt,value
2023-03-19T00:02:26.324Z,126.23
2023-03-19T00:04:54.275Z,337.13
2023-03-19T00:07:22.304Z,21.17
2023-03-19T00:09:50.318Z,140.13
2023-03-19T00:12:18.269Z,169.47
2023-03-19T00:14:46.219Z,20.67
2023-03-19T00:17:14.253Z,71.27
2023-03-19T00:19:43.897Z,233.93
2023-03-19T00:22:11.861Z,36.27
2023-03-19T00:24:39.827Z,79.90
2023-03-19T00:27:08.072Z,92.40
2023-03-19T00:29:36.358Z,19.47
2023-03-19T00:32:04.552Z,73.47
2023-03-19T00:34:32.512Z,24.03
2023-03-19T00:37:02.029Z,63.47
2023-03-19T00:39:30.045Z,87.93
2023-03-19T00:41:58.086Z,97.30
2023-03-19T00:44:26.118Z,185.13
2023-03-19T00:46:54.086Z,13.57
2023-03-19T00:49:22.363Z,37.70
2023-03-19T00:51:50.413Z,62.43
2023-03-19T00:54:19.752Z,38.07
2023-03-19T00:56:47.688Z,28.00
2023-03-19T00:59:15.623Z,59.17
2023-03-19T01:01:43.614Z,80.73
2023-03-19T01:04:13.048Z,114.97
2023-03-19T01:06:41.033Z,75.03
2023-03-19T01:09:08.982Z,31.30
2023-03-19T01:11:38.514Z,161.67
2023-03-19T01:14:06.473Z,16.97
2023-03-19T01:16:35.675Z,47.10
2023-03-19T01:19:04.631Z,89.50
2023-03-19T01:21:32.563Z,38.50
2023-03-19T01:24:00.616Z,42.37
2023-03-19T01:26:28.762Z,107.37
2023-03-19T01:28:59.486Z,90.03
2023-03-19T01:31:27.607Z,50.27
2023-03-19T01:33:55.804Z,65.83
2023-03-19T01:36:23.764Z,56.10
2023-03-19T01:38:51.928Z,27.13
2023-03-19T01:41:19.908Z,82.10
2023-03-19T01:43:47.861Z,302.60
2023-03-19T01:46:27.134Z,68.57
2023-03-19T01:48:59.893Z,105.83
2023-03-19T01:51:30.589Z,53.53
2023-03-19T01:54:01.726Z,164.27
2023-03-19T01:56:33.423Z,144.10
2023-03-19T01:59:06.508Z,269.40
2023-03-19T02:01:39.081Z,44.40
2023-03-19T02:04:08.174Z,236.77
2023-03-19T02:06:37.721Z,73.80
2023-03-19T02:09:06.270Z,217.07
2023-03-19T02:11:34.772Z,103.33
2023-03-19T02:14:02.792Z,46.20
2023-03-19T02:16:31.835Z,156.50
2023-03-19T02:19:01.484Z,139.43
2023-03-19T02:21:30.000Z,124.60
2023-03-19T02:24:04.429Z,114.17
2023-03-19T02:26:34.109Z,26.20
2023-03-19T02:29:02.068Z,85.13
2023-03-19T02:31:30.062Z,91.00
2023-03-19T02:34:00.254Z,56.40
2023-03-19T02:36:33.411Z,79.73
2023-03-19T02:39:05.601Z,138.20
2023-03-19T02:41:37.216Z,38.60
2023-03-19T02:44:05.855Z,327.93
2023-03-19T02:46:33.862Z,14.70
2023-03-19T02:49:01.873Z,510.23
2023-03-19T02:51:29.823Z,210.60
2023-03-19T02:53:57.824Z,115.37
2023-03-19T02:56:26.226Z,36.63
2023-03-19T02:58:55.686Z,185.30
2023-03-19T03:01:24.631Z,110.70
2023-03-19T03:03:52.636Z,105.47
2023-03-19T03:06:20.572Z,82.93
2023-03-19T03:08:48.536Z,123.83
2023-03-19T03:11:16.564Z,114.00
2023-03-19T03:13:44.639Z,123.13
2023-03-19T03:16:15.556Z,327.07
2023-03-19T03:18:43.536Z,116.77
2023-03-19T03:21:11.753Z,28.83
2023-03-19T03:23:39.698Z,55.90
2023-03-19T03:26:08.262Z,25.97
2023-03-19T03:28:36.283Z,60.00
2023-03-19T03:31:04.454Z,194.47
2023-03-19T03:33:33.983Z,118.80
2023-03-19T03:36:01.923Z,50.63
2023-03-19T03:38:29.861Z,44.20
2023-03-19T03:40:57.797Z,38.57
2023-03-19T03:43:26.581Z,68.80
2023-03-19T03:45:54.851Z,128.90
2023-03-19T03:48:23.192Z,69.23
2023-03-19T03:50:52.709Z,138.57
2023-03-19T03:53:20.852Z,25.83
2023-03-19T03:55:48.849Z,127.77
2023-03-19T03:58:16.904Z,32.37
2023-03-19T04:00:45.028Z,140.30
2023-03-19T04:03:13.296Z,48.00
2023-03-19T04:05:41.782Z,173.83
2023-03-19T04:08:12.149Z,26.43
2023-03-19T04:10:42.358Z,61.80
2023-03-19T04:13:10.445Z,99.97
2023-03-19T04:15:38.610Z,124.00
2023-03-19T04:18:06.622Z,17.40
2023-03-19T04:20:34.887Z,33.30
2023-03-19T04:23:03.403Z,109.27
2023-03-19T04:25:32.763Z,33.20
2023-03-19T04:28:00.698Z,43.30
2023-03-19T04:30:29.041Z,41.13
2023-03-19T04:32:57.134Z,77.83
2023-03-19T04:35:25.249Z,31.07
2023-03-19T04:37:53.195Z,60.27
2023-03-19T04:40:21.197Z,24.10
2023-03-19T04:42:50.480Z,43.07
2023-03-19T04:45:19.458Z,38.27
2023-03-19T04:47:47.385Z,221.30
2023-03-19T04:50:15.376Z,221.13
2023-03-19T04:52:43.320Z,42.93
2023-03-19T04:55:11.872Z,105.20
2023-03-19T04:57:39.847Z,119.67
2023-03-19T05:00:10.973Z,39.10
2023-03-19T05:02:39.416Z,51.63
2023-03-19T05:05:07.804Z,26.30
2023-03-19T05:07:36.395Z,121.00
2023-03-19T05:10:04.741Z,86.47
2023-03-19T05:12:32.884Z,60.73
2023-03-19T05:15:00.831Z,63.90
2023-03-19T05:17:30.110Z,34.20
2023-03-19T05:19:58.435Z,91.20
2023-03-19T05:22:26.957Z,134.10
2023-03-19T05:24:54.940Z,49.13
2023-03-19T05:27:23.008Z,21.47
2023-03-19T05:29:50.965Z,40.67
2023-03-19T05:32:19.046Z,25.17
2023-03-19T05:34:48.377Z,65.17
2023-03-19T05:37:17.095Z,19.43
2023-03-19T05:39:45.265Z,59.83
2023-03-19T05:42:14.769Z,152.70
2023-03-19T05:44:43.155Z,16.97
2023-03-19T05:47:12.166Z,21.10
2023-03-19T05:49:40.101Z,23.77
2023-03-19T05:52:09.736Z,48.63
2023-03-19T05:54:37.660Z,31.47
2023-03-19T05:57:05.982Z,26.20
2023-03-19T05:59:34.130Z,80.10
2023-03-19T06:02:02.083Z,170.00
2023-03-19T06:04:30.010Z,14.80
2023-03-19T06:06:57.979Z,86.03
2023-03-19T06:09:27.270Z,32.87
2023-03-19T06:11:55.225Z,107.63
2023-03-19T06:14:23.337Z,81.27
2023-03-19T06:16:51.483Z,17.23
2023-03-19T06:19:19.472Z,96.07
2023-03-19T06:21:47.495Z,25.60
2023-03-19T06:24:15.484Z,79.87
2023-03-19T06:26:44.851Z,55.10
2023-03-19T06:29:12.804Z,177.57
2023-03-19T06:31:41.783Z,26.80
2023-03-19T06:34:10.266Z,182.20
2023-03-19T06:36:38.318Z,149.73
2023-03-19T06:39:06.269Z,57.33
2023-03-19T06:41:34.465Z,121.07
2023-03-19T06:44:04.280Z,190.83
2023-03-19T06:46:32.372Z,293.13
2023-03-19T06:49:00.387Z,156.37
2023-03-19T06:51:28.487Z,256.87
2023-03-19T06:53:56.684Z,367.90
2023-03-19T06:56:25.050Z,405.33
2023-03-19T06:58:52.994Z,200.50
2023-03-19T07:01:23.216Z,266.10
2023-03-19T07:03:51.281Z,360.03
2023-03-19T07:06:19.261Z,197.67
2023-03-19T07:08:47.234Z,459.40
2023-03-19T07:11:16.598Z,597.90
2023-03-19T07:13:44.602Z,541.43
2023-03-19T07:16:12.576Z,644.20
2023-03-19T07:18:41.884Z,619.87
2023-03-19T07:21:09.984Z,538.50
2023-03-19T07:23:37.995Z,755.67
2023-03-19T07:26:06.402Z,879.53
2023-03-19T07:28:34.542Z,937.13
2023-03-19T07:31:02.511Z,972.72
2023-03-19T07:33:30.471Z,765.70
2023-03-19T07:35:59.806Z,776.72
2023-03-19T07:38:27.916Z,802.17
2023-03-19T07:41:02.504Z,727.77
2023-03-19T07:43:31.273Z,707.77
2023-03-19T07:45:59.522Z,786.77
2023-03-19T07:48:27.504Z,613.90
2023-03-19T07:50:55.599Z,624.97
2023-03-19T07:53:25.281Z,665.73
2023-03-19T07:55:53.241Z,553.37
2023-03-19T07:58:21.179Z,760.08
2023-03-19T08:00:49.157Z,816.83
2023-03-19T08:03:17.381Z,760.60
2023-03-19T08:05:45.337Z,812.70
2023-03-19T08:08:13.271Z,728.60
2023-03-19T08:10:42.812Z,656.65
2023-03-19T08:13:10.827Z,668.85
2023-03-19T08:15:38.776Z,699.85
2023-03-19T08:18:07.665Z,741.35
2023-03-19T08:20:35.979Z,566.47
2023-03-19T08:23:04.484Z,665.23
2023-03-19T08:25:33.264Z,732.97
2023-03-19T08:28:02.786Z,594.83
2023-03-19T08:30:32.347Z,667.20
2023-03-19T08:33:01.160Z,537.00
2023-03-19T08:35:30.093Z,403.43
2023-03-19T08:37:58.786Z,763.55
2023-03-19T08:40:27.123Z,798.55
2023-03-19T08:42:56.043Z,679.60
2023-03-19T08:45:25.404Z,557.03
2023-03-19T08:47:53.743Z,676.65
2023-03-19T08:50:22.029Z,531.03
2023-03-19T08:52:50.181Z,670.67
2023-03-19T08:55:18.269Z,854.47
2023-03-19T08:57:46.251Z,744.70
2023-03-19T09:00:15.473Z,733.58
2023-03-19T09:02:44.792Z,716.75
2023-03-19T09:05:12.761Z,891.72
2023-03-19T09:07:40.933Z,881.10
2023-03-19T09:10:09.849Z,903.20
2023-03-19T09:12:37.823Z,844.63
2023-03-19T09:15:06.780Z,947.83
2023-03-19T09:17:34.742Z,978.22
2023-03-19T09:20:06.186Z,959.63
2023-03-19T09:22:34.168Z,882.78
2023-03-19T09:25:02.102Z,743.85
2023-03-19T09:27:30.055Z,893.85
2023-03-19T09:29:58.575Z,999.90
2023-03-19T09:32:26.623Z,780.30
2023-03-19T09:34:54.580Z,887.97
2023-03-19T09:37:23.887Z,788.80
2023-03-19T09:39:51.959Z,847.45
2023-03-19T09:42:44.304Z,911.20
2023-03-19T09:45:16.033Z,814.25
2023-03-19T09:47:46.622Z,709.50
2023-03-19T09:50:16.888Z,999.33
2023-03-19T09:52:48.007Z,975.80
2023-03-19T09:55:29.142Z,999.90
2023-03-19T09:57:58.897Z,946.60
2023-03-19T10:00:29.298Z,876.72
2023-03-19T10:03:03.855Z,765.78
2023-03-19T10:05:43.493Z,972.70
2023-03-19T10:08:33.794Z,999.90
2023-03-19T10:11:18.904Z,821.53
2023-03-19T10:14:00.524Z,906.55
2023-03-19T10:16:31.254Z,922.05
2023-03-19T10:19:01.768Z,999.90
2023-03-19T10:21:35.288Z,996.03
2023-03-19T10:24:08.008Z,889.72
2023-03-19T10:26:36.564Z,893.63
2023-03-19T10:29:08.539Z,887.10
2023-03-19T10:31:44.921Z,906.78
2023-03-19T10:34:28.798Z,870.63
2023-03-19T10:37:01.793Z,999.90
2023-03-19T10:39:33.893Z,741.28
2023-03-19T10:42:19.697Z,839.95
2023-03-19T10:44:51.702Z,986.47
2023-03-19T10:47:22.667Z,944.20
2023-03-19T10:49:51.890Z,899.50
2023-03-19T10:52:23.564Z,922.53
2023-03-19T10:54:57.195Z,946.65
2023-03-19T10:57:27.890Z,885.42
2023-03-19T10:59:56.368Z,886.60
2023-03-19T11:02:31.026Z,999.90
2023-03-19T11:05:20.239Z,999.90
2023-03-19T11:07:51.693Z,999.90
2023-03-19T11:10:22.203Z,999.90
2023-03-19T11:12:57.746Z,995.97
2023-03-19T11:15:29.835Z,999.90
2023-03-19T11:17:59.386Z,999.90
2023-03-19T11:20:31.733Z,999.53
2023-03-19T11:23:03.172Z,989.67
2023-03-19T11:25:37.558Z,757.65
2023-03-19T11:28:09.857Z,904.90
2023-03-19T11:30:50.485Z,897.25
2023-03-19T11:33:48.988Z,804.40
2023-03-19T11:36:23.902Z,999.90
2023-03-19T11:39:01.488Z,999.90
2023-03-19T11:41:43.173Z,906.65
2023-03-19T11:44:17.625Z,983.47
2023-03-19T11:46:54.317Z,999.90
2023-03-19T11:49:43.407Z,999.90
2023-03-19T11:52:19.417Z,980.08
2023-03-19T11:55:01.632Z,999.90
2023-03-19T11:57:46.493Z,951.38
2023-03-19T12:00:26.783Z,999.90
2023-03-19T12:03:37.151Z,888.60
2023-03-19T12:06:12.390Z,800.38
2023-03-19T12:08:46.478Z,911.25
2023-03-19T12:11:19.885Z,916.28
2023-03-19T12:14:03.817Z,999.90
2023-03-19T12:16:46.503Z,934.00
2023-03-19T12:19:46.003Z,999.90
2023-03-19T12:22:22.938Z,769.72
2023-03-19T12:25:09.980Z,999.90
2023-03-19T12:27:43.784Z,982.83
2023-03-19T12:30:23.475Z,999.90
2023-03-19T12:33:11.214Z,994.08
2023-03-19T12:35:42.011Z,926.08
2023-03-19T12:38:14.725Z,664.80
2023-03-19T12:40:46.431Z,999.90
2023-03-19T12:43:19.939Z,999.90
2023-03-19T12:45:57.858Z,941.70
2023-03-19T12:48:30.072Z,951.00
2023-03-19T12:51:06.852Z,953.83
2023-03-19T12:53:44.002Z,950.25
2023-03-19T12:56:18.788Z,978.42
2023-03-19T12:58:54.774Z,974.58
2023-03-19T13:01:28.528Z,963.08
2023-03-19T13:04:03.325Z,907.10
2023-03-19T13:06:38.183Z,999.90
2023-03-19T13:09:13.482Z,937.80
2023-03-19T13:11:47.798Z,999.90
2023-03-19T13:14:23.622Z,947.35
2023-03-19T13:17:00.525Z,999.90
2023-03-19T13:19:35.682Z,999.90
2023-03-19T13:22:08.078Z,999.88
2023-03-19T13:24:38.481Z,999.90
2023-03-19T13:27:13.039Z,999.90
2023-03-19T13:30:02.025Z,999.90
2023-03-19T13:32:38.997Z,958.13
2023-03-19T13:35:36.316Z,865.67
2023-03-19T13:38:08.876Z,999.83
2023-03-19T13:40:41.245Z,877.70
2023-03-19T13:43:37.984Z,841.00
2023-03-19T13:46:28.882Z,999.90
2023-03-19T13:49:10.132Z,999.90
2023-03-19T13:51:38.216Z,937.22
2023-03-19T13:54:08.450Z,999.90
2023-03-19T13:57:05.760Z,990.17
2023-03-19T13:59:34.603Z,999.90
2023-03-19T14:02:03.613Z,896.47
2023-03-19T14:04:34.178Z,869.75
2023-03-19T14:07:13.353Z,999.90
2023-03-19T14:09:43.713Z,882.30
2023-03-19T14:12:21.177Z,979.30
2023-03-19T14:14:53.238Z,686.28
2023-03-19T14:17:25.239Z,830.55
2023-03-19T14:19:55.472Z,793.95
2023-03-19T14:22:35.270Z,684.58
2023-03-19T14:25:18.011Z,665.33
2023-03-19T14:27:48.457Z,707.03
2023-03-19T14:30:28.417Z,642.60
2023-03-19T14:32:58.743Z,713.65
2023-03-19T14:35:28.775Z,840.42
2023-03-19T14:37:57.793Z,687.70
2023-03-19T14:40:28.068Z,602.35
2023-03-19T14:43:05.145Z,613.75
2023-03-19T14:45:56.261Z,717.72
2023-03-19T14:48:52.088Z,570.25
2023-03-19T14:51:37.666Z,577.13
2023-03-19T14:54:13.314Z,727.85
2023-03-19T14:56:41.898Z,700.63
2023-03-19T14:59:15.188Z,851.15
2023-03-19T15:01:49.498Z,875.95
2023-03-19T15:04:18.145Z,832.00
2023-03-19T15:06:53.598Z,730.17
2023-03-19T15:09:26.912Z,585.13
2023-03-19T15:12:21.252Z,639.30
2023-03-19T15:15:09.304Z,681.67
2023-03-19T15:17:38.872Z,503.48
2023-03-19T15:20:18.402Z,535.78
2023-03-19T15:22:55.472Z,661.28
2023-03-19T15:25:23.672Z,661.72
2023-03-19T15:28:08.055Z,831.03
2023-03-19T15:30:50.543Z,580.25
2023-03-19T15:33:39.016Z,871.60
2023-03-19T15:36:13.464Z,610.47
2023-03-19T15:38:47.105Z,761.67
2023-03-19T15:41:15.868Z,593.08
2023-03-19T15:43:44.890Z,441.02
2023-03-19T15:46:16.001Z,886.25
2023-03-19T15:48:49.437Z,819.33
2023-03-19T15:51:20.474Z,890.40
2023-03-19T15:53:50.163Z,987.58
2023-03-19T15:56:20.264Z,844.30
2023-03-19T15:58:53.297Z,460.73
2023-03-19T16:01:22.497Z,671.42
2023-03-19T16:03:56.128Z,736.70
2023-03-19T16:06:27.244Z,845.50
2023-03-19T16:09:07.253Z,642.75
2023-03-19T16:11:37.258Z,633.28
2023-03-19T16:14:11.881Z,734.10
2023-03-19T16:16:42.235Z,560.88
2023-03-19T16:19:29.456Z,687.33
2023-03-19T16:21:57.904Z,632.05
2023-03-19T16:24:31.103Z,839.40
2023-03-19T16:26:59.613Z,819.13
2023-03-19T16:29:29.008Z,577.20
2023-03-19T16:32:02.375Z,612.67
2023-03-19T16:34:42.199Z,578.70
2023-03-19T16:37:28.102Z,778.90
2023-03-19T16:39:59.258Z,625.22
2023-03-19T16:42:31.374Z,710.83
2023-03-19T16:45:03.231Z,730.65
2023-03-19T16:47:31.260Z,733.17
2023-03-19T16:49:59.184Z,305.43
2023-03-19T16:52:27.220Z,514.23
2023-03-19T16:54:57.499Z,777.00
2023-03-19T16:57:25.562Z,338.05
2023-03-19T16:59:53.596Z,537.75
2023-03-19T17:02:21.596Z,599.15
2023-03-19T17:04:49.768Z,279.77
2023-03-19T17:07:17.836Z,64.90
2023-03-19T17:09:45.768Z,599.35
2023-03-19T17:12:17.516Z,527.58
2023-03-19T17:14:45.683Z,423.33
2023-03-19T17:17:19.367Z,518.43
2023-03-19T17:19:48.285Z,798.53
2023-03-19T17:22:16.935Z,557.13
2023-03-19T17:24:45.490Z,468.95
2023-03-19T17:27:15.396Z,681.97
2023-03-19T17:29:43.623Z,478.53
2023-03-19T17:32:18.918Z,731.77
2023-03-19T17:34:47.087Z,435.13
2023-03-19T17:37:15.996Z,353.43
2023-03-19T17:39:45.767Z,702.83
2023-03-19T17:42:20.078Z,767.83
2023-03-19T17:44:48.165Z,806.33
2023-03-19T17:47:18.042Z,706.20
2023-03-19T17:49:46.631Z,291.43
2023-03-19T17:52:16.478Z,521.03
2023-03-19T17:54:44.549Z,196.87
2023-03-19T17:57:14.756Z,234.63
2023-03-19T17:59:44.078Z,479.07
2023-03-19T18:02:25.988Z,351.93
2023-03-19T18:04:54.274Z,221.73
2023-03-19T18:07:22.240Z,453.90
2023-03-19T18:09:50.371Z,401.47
2023-03-19T18:12:18.363Z,173.20
2023-03-19T18:14:47.687Z,441.53
2023-03-19T18:17:17.332Z,237.00
2023-03-19T18:19:47.531Z,384.80
2023-03-19T18:22:17.045Z,427.23
2023-03-19T18:24:46.141Z,543.77
2023-03-19T18:27:14.685Z,314.47
2023-03-19T18:29:42.712Z,292.57
2023-03-19T18:32:20.605Z,282.67
2023-03-19T18:34:48.578Z,347.70
2023-03-19T18:37:18.133Z,519.70
2023-03-19T18:39:46.125Z,286.40
2023-03-19T18:42:14.889Z,311.70
2023-03-19T18:44:43.202Z,90.03
2023-03-19T18:47:15.870Z,395.40
2023-03-19T18:49:44.734Z,255.10
2023-03-19T18:52:18.684Z,358.50
2023-03-19T18:54:47.192Z,147.17
2023-03-19T18:57:16.499Z,553.67
2023-03-19T18:59:44.614Z,242.57
2023-03-19T19:02:32.482Z,176.43
2023-03-19T19:05:00.728Z,289.90
2023-03-19T19:07:28.804Z,51.57
2023-03-19T19:09:56.795Z,256.13
2023-03-19T19:12:27.181Z,407.13
2023-03-19T19:14:55.235Z,109.40
2023-03-19T19:17:29.122Z,56.07
2023-03-19T19:19:57.315Z,201.20
2023-03-19T19:22:25.301Z,71.97
2023-03-19T19:24:53.244Z,404.20
2023-03-19T19:27:26.039Z,178.57
2023-03-19T19:29:54.220Z,262.87
2023-03-19T19:32:25.791Z,269.93
2023-03-19T19:34:54.106Z,91.07
2023-03-19T19:37:23.490Z,35.70
2023-03-19T19:39:51.859Z,183.33
2023-03-19T19:42:22.214Z,123.07
2023-03-19T19:44:53.697Z,195.93
2023-03-19T19:47:21.732Z,88.40
2023-03-19T19:49:51.043Z,230.67
2023-03-19T19:52:20.750Z,145.03
2023-03-19T19:54:48.982Z,203.80
2023-03-19T19:57:19.630Z,348.53
2023-03-19T19:59:47.906Z,141.73
2023-03-19T20:02:23.799Z,198.43
2023-03-19T20:04:53.451Z,132.40
2023-03-19T20:07:21.400Z,351.10
2023-03-19T20:09:49.659Z,161.30
2023-03-19T20:12:22.437Z,250.20
2023-03-19T20:14:52.122Z,127.93
2023-03-19T20:17:21.962Z,117.90
2023-03-19T20:19:50.047Z,310.03
2023-03-19T20:22:19.472Z,136.90
2023-03-19T20:24:50.405Z,91.80
2023-03-19T20:27:22.350Z,158.60
2023-03-19T20:29:51.148Z,41.13
2023-03-19T20:32:29.433Z,114.07
2023-03-19T20:34:57.402Z,49.27
2023-03-19T20:37:26.847Z,97.13
2023-03-19T20:39:54.899Z,122.30
2023-03-19T20:42:23.446Z,165.53
2023-03-19T20:44:56.511Z,226.13
2023-03-19T20:47:25.739Z,227.70
2023-03-19T20:49:54.301Z,242.03
2023-03-19T20:52:22.362Z,46.67
2023-03-19T20:54:52.730Z,201.07
2023-03-19T20:57:26.630Z,91.73
2023-03-19T20:59:54.645Z,105.87
2023-03-19T21:02:24.546Z,83.07
2023-03-19T21:04:53.199Z,32.40
2023-03-19T21:07:29.221Z,265.27
2023-03-19T21:09:59.330Z,222.53
2023-03-19T21:12:30.256Z,179.30
2023-03-19T21:14:58.785Z,199.63
2023-03-19T21:17:27.399Z,148.40
2023-03-19T21:19:55.900Z,135.40
2023-03-19T21:22:27.035Z,183.60
2023-03-19T21:25:03.319Z,74.73
2023-03-19T21:27:32.662Z,84.07
2023-03-19T21:30:00.648Z,147.83
2023-03-19T21:32:28.642Z,485.83
2023-03-19T21:34:56.642Z,274.27
2023-03-19T21:37:24.621Z,55.50
2023-03-19T21:39:52.610Z,77.83
2023-03-19T21:42:23.492Z,120.60
2023-03-19T21:44:57.701Z,52.57
2023-03-19T21:47:25.885Z,103.47
2023-03-19T21:49:54.953Z,183.10
2023-03-19T21:52:22.982Z,68.43
2023-03-19T21:54:50.936Z,123.77
2023-03-19T21:57:18.897Z,33.37
2023-03-19T21:59:48.584Z,203.97
2023-03-19T22:02:40.567Z,321.90
2023-03-19T22:05:21.477Z,186.23
2023-03-19T22:07:49.776Z,61.50
2023-03-19T22:10:18.531Z,16.87
2023-03-19T22:12:47.112Z,348.70
2023-03-19T22:15:23.381Z,78.07
2023-03-19T22:17:51.399Z,151.43
2023-03-19T22:20:21.753Z,44.83
2023-03-19T22:22:49.869Z,165.70
2023-03-19T22:25:19.363Z,261.30
2023-03-19T22:27:49.300Z,130.67
2023-03-19T22:30:27.059Z,149.33
2023-03-19T22:32:57.117Z,41.03
2023-03-19T22:35:25.546Z,36.50
2023-03-19T22:37:53.475Z,24.30
2023-03-19T22:40:21.991Z,97.83
2023-03-19T22:42:50.744Z,22.27
2023-03-19T22:45:24.683Z,98.47
2023-03-19T22:47:53.067Z,26.87
2023-03-19T22:50:23.681Z,129.70
2023-03-19T22:52:51.837Z,47.07
2023-03-19T22:55:20.480Z,217.17
2023-03-19T22:57:48.750Z,111.13
2023-03-19T23:00:19.370Z,122.10
2023-03-19T23:02:54.641Z,154.90
2023-03-19T23:05:27.851Z,52.70
2023-03-19T23:07:56.442Z,181.43
2023-03-19T23:10:26.805Z,68.23
2023-03-19T23:12:55.839Z,90.07
2023-03-19T23:15:26.774Z,344.83
2023-03-19T23:17:58.992Z,103.50
2023-03-19T23:20:28.828Z,241.73
2023-03-19T23:22:57.640Z,205.00
2023-03-19T23:25:28.482Z,152.10
2023-03-19T23:27:59.757Z,84.03
2023-03-19T23:30:30.311Z,457.13
2023-03-19T23:33:01.553Z,243.03
2023-03-19T23:35:32.341Z,131.87
2023-03-19T23:38:01.702Z,215.93
2023-03-19T23:40:33.177Z,273.57
2023-03-19T23:43:02.502Z,97.77
2023-03-19T23:45:34.733Z,357.77
2023-03-19T23:48:07.275Z,46.47
2023-03-19T23:50:35.601Z,58.30
2023-03-19T23:53:03.775Z,44.83
2023-03-19T23:55:32.869Z,16.53
2023-03-19T23:58:02.398Z,245.03
